createdAt,value
2018-07-13T00:00:23.866Z,53.74
2018-07-13T00:01:23.855Z,53.54
2018-07-13T00:02:23.846Z,53.24
2018-07-13T00:03:23.834Z,53.34
2018-07-13T00:04:23.845Z,53.24
2018-07-13T00:05:23.811Z,53.44
2018-07-13T00:06:23.800Z,53.34
2018-07-13T00:07:23.790Z,53.34
2018-07-13T00:08:23.779Z,53.17
2018-07-13T00:09:23.790Z,53.34
2018-07-13T00:10:23.760Z,53.54
2018-07-13T00:11:23.747Z,53.34
2018-07-13T00:12:23.732Z,53.44
2018-07-13T00:13:23.723Z,53.34
2018-07-13T00:14:23.733Z,53.34
2018-07-13T00:15:23.700Z,53.44
2018-07-13T00:16:23.693Z,53.44
2018-07-13T00:17:23.678Z,53.34
2018-07-13T00:18:23.667Z,53.34
2018-07-13T00:19:23.679Z,53.27
2018-07-13T00:20:23.647Z,53.56
2018-07-13T00:21:23.633Z,53.24
2018-07-13T00:22:23.623Z,53.24
2018-07-13T00:23:23.611Z,53.24
2018-07-13T00:24:23.623Z,53.27
2018-07-13T00:25:23.594Z,53.24
2018-07-13T00:26:23.580Z,53.27
2018-07-13T00:27:23.569Z,53.47
2018-07-13T00:28:23.558Z,53.74
2018-07-13T00:29:23.549Z,53.27
2018-07-13T00:30:23.559Z,53.17
2018-07-13T00:31:23.525Z,53.27
2018-07-13T00:32:23.515Z,53.74
2018-07-13T00:33:23.502Z,53.64
2018-07-13T00:34:23.492Z,53.06
2018-07-13T00:35:23.503Z,53.64
2018-07-13T00:36:23.472Z,53.56
2018-07-13T00:37:23.461Z,53.66
2018-07-13T00:38:23.450Z,53.47
2018-07-13T00:39:23.439Z,53.27
2018-07-13T00:40:23.448Z,53.56
2018-07-13T00:41:23.421Z,53.66
2018-07-13T00:42:23.403Z,53.77
2018-07-13T00:43:23.395Z,53.27
2018-07-13T00:44:23.385Z,53.66
2018-07-13T00:45:23.393Z,53.66
2018-07-13T00:46:23.359Z,53.66
2018-07-13T00:47:23.348Z,53.77
2018-07-13T00:48:23.336Z,53.66
2018-07-13T00:49:23.325Z,53.66
2018-07-13T00:50:23.336Z,54.27
2018-07-13T00:51:23.303Z,54.27
2018-07-13T00:52:23.291Z,53.96
2018-07-13T00:53:23.281Z,54.06
2018-07-13T00:54:23.272Z,54.06
2018-07-13T00:55:23.283Z,53.96
2018-07-13T00:56:23.251Z,54.27
2018-07-13T00:57:23.235Z,54.27
2018-07-13T00:58:23.225Z,53.96
2018-07-13T00:59:23.214Z,54.16
2018-07-13T01:00:23.227Z,53.96
2018-07-13T01:01:23.192Z,54.27
2018-07-13T01:02:23.183Z,54.46
2018-07-13T01:03:23.169Z,54.06
2018-07-13T01:04:23.160Z,54.16
2018-07-13T01:05:23.174Z,53.96
2018-07-13T01:06:23.137Z,54.06
2018-07-13T01:07:23.125Z,54.46
2018-07-13T01:08:23.115Z,54.27
2018-07-13T01:09:23.103Z,54.36
2018-07-13T01:10:23.115Z,54.27
2018-07-13T01:11:23.081Z,53.96
2018-07-13T01:12:23.070Z,54.16
2018-07-13T01:13:23.060Z,54.16
2018-07-13T01:14:23.049Z,54.16
2018-07-13T01:15:23.060Z,54.27
2018-07-13T01:16:23.027Z,54.27
2018-07-13T01:17:23.016Z,54.06
2018-07-13T01:18:23.003Z,54.29
2018-07-13T01:19:22.992Z,54.39
2018-07-13T01:20:23.005Z,54.06
2018-07-13T01:21:22.975Z,54.09
2018-07-13T01:22:22.959Z,54.27
2018-07-13T01:23:22.949Z,54.27
2018-07-13T01:24:22.937Z,54.16
2018-07-13T01:25:22.949Z,53.96
2018-07-13T01:26:22.914Z,54.36
2018-07-13T01:27:22.903Z,54.09
2018-07-13T01:28:22.893Z,54.39
2018-07-13T01:29:22.880Z,54.29
2018-07-13T01:30:22.871Z,54.19
2018-07-13T01:31:22.880Z,54.06
2018-07-13T01:32:22.848Z,54.27
2018-07-13T01:33:22.842Z,54.36
2018-07-13T01:34:22.824Z,54.29
2018-07-13T01:35:22.813Z,54.36
2018-07-13T01:36:22.826Z,54.29
2018-07-13T01:37:22.793Z,54.09
2018-07-13T01:38:22.780Z,54.19
2018-07-13T01:39:22.770Z,54.09
2018-07-13T01:40:22.759Z,54.39
2018-07-13T01:41:22.774Z,54.39
2018-07-13T01:42:22.737Z,54.09
2018-07-13T01:43:22.726Z,54.29
2018-07-13T01:44:22.714Z,54.49
2018-07-13T01:45:22.704Z,54.49
2018-07-13T01:46:22.716Z,54.49
2018-07-13T01:47:22.680Z,54.39
2018-07-13T01:48:22.669Z,54.09
2018-07-13T01:49:22.659Z,54.49
2018-07-13T01:50:22.649Z,54.49
2018-07-13T01:51:22.661Z,54.49
2018-07-13T01:52:22.626Z,54.29
2018-07-13T01:53:22.614Z,54.29
2018-07-13T01:54:22.605Z,54.29
2018-07-13T01:55:22.593Z,53.99
2018-07-13T01:56:22.608Z,54.09
2018-07-13T01:57:22.571Z,54.49
2018-07-13T01:58:22.559Z,54.29
2018-07-13T01:59:22.552Z,54.19
2018-07-13T02:00:22.538Z,54.59
2018-07-13T02:01:22.549Z,54.19
2018-07-13T02:02:22.515Z,54.19
2018-07-13T02:03:22.505Z,54.39
2018-07-13T02:04:22.493Z,54.59
2018-07-13T02:05:22.485Z,54.59
2018-07-13T02:06:22.494Z,54.39
2018-07-13T02:07:22.459Z,54.29
2018-07-13T02:08:22.449Z,54.59
2018-07-13T02:09:22.441Z,54.39
2018-07-13T02:10:22.427Z,54.09
2018-07-13T02:11:22.416Z,54.19
2018-07-13T02:12:22.428Z,54.19
2018-07-13T02:13:22.394Z,54.09
2018-07-13T02:14:22.382Z,54.39
2018-07-13T02:15:22.372Z,54.59
2018-07-13T02:16:22.361Z,54.39
2018-07-13T02:17:22.373Z,54.19
2018-07-13T02:18:22.337Z,54.19
2018-07-13T02:19:22.326Z,54.09
2018-07-13T02:20:22.316Z,53.99
2018-07-13T02:21:22.304Z,54.39
2018-07-13T02:22:22.317Z,54.59
2018-07-13T02:23:22.282Z,54.09
2018-07-13T02:24:22.271Z,54.19
2018-07-13T02:25:22.260Z,54.59
2018-07-13T02:26:22.251Z,54.59
2018-07-13T02:27:22.262Z,54.79
2018-07-13T02:28:22.230Z,54.09
2018-07-13T02:29:22.217Z,54.39
2018-07-13T02:30:22.208Z,54.69
2018-07-13T02:31:22.197Z,54.59
2018-07-13T02:32:22.209Z,54.59
2018-07-13T02:33:22.172Z,54.19
2018-07-13T02:34:22.162Z,54.39
2018-07-13T02:35:22.151Z,54.29
2018-07-13T02:36:22.145Z,54.49
2018-07-13T02:37:22.152Z,54.79
2018-07-13T02:38:22.116Z,54.19
2018-07-13T02:39:22.106Z,54.59
2018-07-13T02:40:22.095Z,54.69
2018-07-13T02:41:22.085Z,54.59
2018-07-13T02:42:22.099Z,54.29
2018-07-13T02:43:22.062Z,54.49
2018-07-13T02:44:22.052Z,54.39
2018-07-13T02:45:22.039Z,54.59
2018-07-13T02:46:22.029Z,54.69
2018-07-13T02:47:22.041Z,54.59
2018-07-13T02:48:22.011Z,54.29
2018-07-13T02:49:22.004Z,54.32
2018-07-13T02:50:21.985Z,54.29
2018-07-13T02:51:21.977Z,54.29
2018-07-13T02:52:21.987Z,54.59
2018-07-13T02:53:21.953Z,54.39
2018-07-13T02:54:21.946Z,54.39
2018-07-13T02:55:21.930Z,54.49
2018-07-13T02:56:21.919Z,54.39
2018-07-13T02:57:21.932Z,54.39
2018-07-13T02:58:21.898Z,54.09
2018-07-13T02:59:21.885Z,54.99
2018-07-13T03:00:21.875Z,54.39
2018-07-13T03:01:21.863Z,54.39
2018-07-13T03:02:21.878Z,53.99
2018-07-13T03:03:21.842Z,54.49
2018-07-13T03:04:21.830Z,54.49
2018-07-13T03:05:21.820Z,53.99
2018-07-13T03:06:21.807Z,54.19
2018-07-13T03:07:21.800Z,54.29
2018-07-13T03:08:21.811Z,54.09
2018-07-13T03:09:21.779Z,54.19
2018-07-13T03:10:21.765Z,54.29
2018-07-13T03:11:21.761Z,54.32
2018-07-13T03:12:21.746Z,54.09
2018-07-13T03:13:21.759Z,54.32
2018-07-13T03:14:21.719Z,54.61
2018-07-13T03:15:21.707Z,54.39
2018-07-13T03:16:21.697Z,54.69
2018-07-13T03:17:21.689Z,54.09
2018-07-13T03:18:21.697Z,54.39
2018-07-13T03:19:21.664Z,54.39
2018-07-13T03:20:21.653Z,54.39
2018-07-13T03:21:21.641Z,54.29
2018-07-13T03:22:21.635Z,54.09
2018-07-13T03:23:21.641Z,54.39
2018-07-13T03:24:21.609Z,54.19
2018-07-13T03:25:21.598Z,54.32
2018-07-13T03:26:21.586Z,54.32
2018-07-13T03:27:21.575Z,54.49
2018-07-13T03:28:21.588Z,54.09
2018-07-13T03:29:21.553Z,53.99
2018-07-13T03:30:21.542Z,54.29
2018-07-13T03:31:21.532Z,54.19
2018-07-13T03:32:21.519Z,54.29
2018-07-13T03:33:21.531Z,54.39
2018-07-13T03:34:21.497Z,54.39
2018-07-13T03:35:21.485Z,54.29
2018-07-13T03:36:21.474Z,54.29
2018-07-13T03:37:21.464Z,54.49
2018-07-13T03:38:21.528Z,54.41
2018-07-13T03:39:21.453Z,54.19
2018-07-13T03:40:21.430Z,54.19
2018-07-13T03:41:21.417Z,54.52
2018-07-13T03:42:21.412Z,54.09
2018-07-13T03:43:21.420Z,54.61
2018-07-13T03:44:21.387Z,54.22
2018-07-13T03:45:21.375Z,54.52
2018-07-13T03:46:21.365Z,54.49
2018-07-13T03:47:21.353Z,54.52
2018-07-13T03:48:21.423Z,54.52
2018-07-13T03:49:21.330Z,54.09
2018-07-13T03:50:21.319Z,54.41
2018-07-13T03:51:21.307Z,54.11
2018-07-13T03:52:21.297Z,54.41
2018-07-13T03:53:21.308Z,54.39
2018-07-13T03:54:21.275Z,54.49
2018-07-13T03:55:21.263Z,54.32
2018-07-13T03:56:21.253Z,54.41
2018-07-13T03:57:21.241Z,54.41
2018-07-13T03:58:21.256Z,54.11
2018-07-13T03:59:21.221Z,54.41
2018-07-13T04:00:21.207Z,54.41
2018-07-13T04:01:21.200Z,54.41
2018-07-13T04:02:21.185Z,54.22
2018-07-13T04:03:21.198Z,54.32
2018-07-13T04:04:21.162Z,54.29
2018-07-13T04:05:21.153Z,54.19
2018-07-13T04:06:21.183Z,54.19
2018-07-13T04:07:21.129Z,54.19
2018-07-13T04:08:21.119Z,53.99
2018-07-13T04:09:21.131Z,54.39
2018-07-13T04:10:21.149Z,54.19
2018-07-13T04:11:21.087Z,53.99
2018-07-13T04:12:21.074Z,54.41
2018-07-13T04:13:21.068Z,54.29
2018-07-13T04:14:21.075Z,54.19
2018-07-13T04:15:21.041Z,54.09
2018-07-13T04:16:21.030Z,54.02
2018-07-13T04:17:21.019Z,53.99
2018-07-13T04:18:21.007Z,53.81
2018-07-13T04:19:21.018Z,53.99
2018-07-13T04:20:20.984Z,53.99
2018-07-13T04:21:20.972Z,54.11
2018-07-13T04:22:20.963Z,54.29
2018-07-13T04:23:20.951Z,54.09
2018-07-13T04:24:20.965Z,54.29
2018-07-13T04:25:20.930Z,54.32
2018-07-13T04:26:20.917Z,54.32
2018-07-13T04:27:20.905Z,54.22
2018-07-13T04:28:20.894Z,54.09
2018-07-13T04:29:20.908Z,54.02
2018-07-13T04:30:20.872Z,54.02
2018-07-13T04:31:20.862Z,54.11
2018-07-13T04:32:20.852Z,54.11
2018-07-13T04:33:20.839Z,54.22
2018-07-13T04:34:20.920Z,54.02
2018-07-13T04:35:20.823Z,54.22
2018-07-13T04:36:20.805Z,54.02
2018-07-13T04:37:20.796Z,53.79
2018-07-13T04:38:20.791Z,53.81
2018-07-13T04:39:20.797Z,54.22
2018-07-13T04:40:20.763Z,53.99
2018-07-13T04:41:20.753Z,53.81
2018-07-13T04:42:20.756Z,53.69
2018-07-13T04:43:20.728Z,53.29
2018-07-13T04:44:20.739Z,53.29
2018-07-13T04:45:20.706Z,53.31
2018-07-13T04:46:20.696Z,53.19
2018-07-13T04:47:20.685Z,53.42
2018-07-13T04:48:20.676Z,53.42
2018-07-13T04:49:20.685Z,53.42
2018-07-13T04:50:20.660Z,53.52
2018-07-13T04:51:20.639Z,53.29
2018-07-13T04:52:20.628Z,53.42
2018-07-13T04:53:20.617Z,53.39
2018-07-13T04:54:20.632Z,53.19
2018-07-13T04:55:20.595Z,53.49
2018-07-13T04:56:20.585Z,53.52
2018-07-13T04:57:20.573Z,53.49
2018-07-13T04:58:20.561Z,53.49
2018-07-13T04:59:20.583Z,53.42
2018-07-13T05:00:20.544Z,53.52
2018-07-13T05:01:20.528Z,53.49
2018-07-13T05:02:20.517Z,53.49
2018-07-13T05:03:20.505Z,53.49
2018-07-13T05:04:20.523Z,53.39
2018-07-13T05:05:20.483Z,53.42
2018-07-13T05:06:20.558Z,53.39
2018-07-13T05:07:20.467Z,53.79
2018-07-13T05:08:20.455Z,53.49
2018-07-13T05:09:20.463Z,53.49
2018-07-13T05:10:20.428Z,53.61
2018-07-13T05:11:20.417Z,53.59
2018-07-13T05:12:20.405Z,53.79
2018-07-13T05:13:20.394Z,53.42
2018-07-13T05:14:20.406Z,53.59
2018-07-13T05:15:20.371Z,53.69
2018-07-13T05:16:20.362Z,53.79
2018-07-13T05:17:20.353Z,53.69
2018-07-13T05:18:20.340Z,53.79
2018-07-13T05:19:20.357Z,53.49
2018-07-13T05:20:20.351Z,53.69
2018-07-13T05:21:20.363Z,53.59
2018-07-13T05:22:20.304Z,53.69
2018-07-13T05:23:20.282Z,53.49
2018-07-13T05:24:20.274Z,53.49
2018-07-13T05:25:20.284Z,53.49
2018-07-13T05:26:20.251Z,53.69
2018-07-13T05:27:20.239Z,53.39
2018-07-13T05:28:20.227Z,53.49
2018-07-13T05:29:20.217Z,53.69
2018-07-13T05:30:20.230Z,53.69
2018-07-13T05:31:20.199Z,53.59
2018-07-13T05:32:20.184Z,52.99
2018-07-13T05:33:20.173Z,52.89
2018-07-13T05:34:20.163Z,52.99
2018-07-13T05:35:20.176Z,52.99
2018-07-13T05:36:20.139Z,53.29
2018-07-13T05:37:20.129Z,52.99
2018-07-13T05:38:20.166Z,52.89
2018-07-13T05:39:20.111Z,53.09
2018-07-13T05:40:20.123Z,52.99
2018-07-13T05:41:20.085Z,52.89
2018-07-13T05:42:20.073Z,52.79
2018-07-13T05:43:20.062Z,53.19
2018-07-13T05:44:20.052Z,52.79
2018-07-13T05:45:20.063Z,52.99
2018-07-13T05:46:20.029Z,52.99
2018-07-13T05:47:20.018Z,52.79
2018-07-13T05:48:20.007Z,53.09
2018-07-13T05:49:19.996Z,53.29
2018-07-13T05:50:20.008Z,52.99
2018-07-13T05:51:19.973Z,53.19
2018-07-13T05:52:19.962Z,52.89
2018-07-13T05:53:19.953Z,52.99
2018-07-13T05:54:19.940Z,52.99
2018-07-13T05:55:19.953Z,53.09
2018-07-13T05:56:19.919Z,52.99
2018-07-13T05:57:19.906Z,52.89
2018-07-13T05:58:19.895Z,53.06
2018-07-13T05:59:19.884Z,53.09
2018-07-13T06:00:19.897Z,52.99
2018-07-13T06:01:19.863Z,53.09
2018-07-13T06:02:19.852Z,52.99
2018-07-13T06:03:19.839Z,53.49
2018-07-13T06:04:19.833Z,52.69
2018-07-13T06:05:19.847Z,52.89
2018-07-13T06:06:19.807Z,52.79
2018-07-13T06:07:19.799Z,52.79
2018-07-13T06:08:19.786Z,52.69
2018-07-13T06:09:19.774Z,52.99
2018-07-13T06:10:19.788Z,52.87
2018-07-13T06:11:19.754Z,52.89
2018-07-13T06:12:19.750Z,52.87
2018-07-13T06:13:19.732Z,53.19
2018-07-13T06:14:19.720Z,52.87
2018-07-13T06:15:19.734Z,52.57
2018-07-13T06:16:19.750Z,52.47
2018-07-13T06:17:19.687Z,52.76
2018-07-13T06:18:19.676Z,52.76
2018-07-13T06:19:19.664Z,52.87
2018-07-13T06:20:19.712Z,52.76
2018-07-13T06:21:19.666Z,52.19
2018-07-13T06:22:19.635Z,52.67
2018-07-13T06:23:19.621Z,52.07
2018-07-13T06:24:19.665Z,52.07
2018-07-13T06:25:19.600Z,52.07
2018-07-13T06:26:19.612Z,52.57
2018-07-13T06:27:19.577Z,52.57
2018-07-13T06:28:19.566Z,52.57
2018-07-13T06:29:19.556Z,52.47
2018-07-13T06:30:19.613Z,52.67
2018-07-13T06:31:19.568Z,52.27
2018-07-13T06:32:19.522Z,52.27
2018-07-13T06:33:19.511Z,52.47
2018-07-13T06:34:19.500Z,52.37
2018-07-13T06:35:19.488Z,52.44
2018-07-13T06:36:19.501Z,52.37
2018-07-13T06:37:19.467Z,52.47
2018-07-13T06:38:19.455Z,52.47
2018-07-13T06:39:19.443Z,52.47
2018-07-13T06:40:19.432Z,51.95
2018-07-13T06:41:19.445Z,51.97
2018-07-13T06:42:19.409Z,51.97
2018-07-13T06:43:19.399Z,51.95
2018-07-13T06:44:19.388Z,52.07
2018-07-13T06:45:19.377Z,51.97
2018-07-13T06:46:19.397Z,52.17
2018-07-13T06:47:19.356Z,51.37
2018-07-13T06:48:19.344Z,51.57
2018-07-13T06:49:19.332Z,51.37
2018-07-13T06:50:19.326Z,51.07
2018-07-13T06:51:19.334Z,51.35
2018-07-13T06:52:19.300Z,51.17
2018-07-13T06:53:19.289Z,51.95
2018-07-13T06:54:19.278Z,51.75
2018-07-13T06:55:19.271Z,51.35
2018-07-13T06:56:19.280Z,51.25
2018-07-13T06:57:19.245Z,51.95
2018-07-13T06:58:19.234Z,52.04
2018-07-13T06:59:19.225Z,52.04
2018-07-13T07:00:19.212Z,51.95
2018-07-13T07:01:19.224Z,51.25
2018-07-13T07:02:19.194Z,51.65
2018-07-13T07:03:19.179Z,51.95
2018-07-13T07:04:19.168Z,51.65
2018-07-13T07:05:19.158Z,51.65
2018-07-13T07:06:19.172Z,51.87
2018-07-13T07:07:19.137Z,51.75
2018-07-13T07:08:19.124Z,52.14
2018-07-13T07:09:19.113Z,51.84
2018-07-13T07:10:19.102Z,52.94
2018-07-13T07:11:19.115Z,53.04
2018-07-13T07:12:19.080Z,53.24
2018-07-13T07:13:19.069Z,53.24
2018-07-13T07:14:19.057Z,53.54
2018-07-13T07:15:19.046Z,53.24
2018-07-13T07:16:19.038Z,53.86
2018-07-13T07:17:19.047Z,54.27
2018-07-13T07:18:19.013Z,55.46
2018-07-13T07:19:19.003Z,56.66
2018-07-13T07:20:18.991Z,56.98
2018-07-13T07:21:18.982Z,58.08
2018-07-13T07:22:18.992Z,58.01
2018-07-13T07:23:18.958Z,58.84
2018-07-13T07:24:18.993Z,59.66
2018-07-13T07:25:18.942Z,60.29
2018-07-13T07:26:18.927Z,60.62
2018-07-13T07:27:18.936Z,62.05
2018-07-13T07:28:18.902Z,62.15
2018-07-13T07:29:18.891Z,62.25
2018-07-13T07:30:18.881Z,62.25
2018-07-13T07:31:18.873Z,62.15
2018-07-13T07:32:18.882Z,62.45
2018-07-13T07:33:18.847Z,62.25
2018-07-13T07:34:18.835Z,62.65
2018-07-13T07:35:18.825Z,62.85
2018-07-13T07:36:18.813Z,62.55
2018-07-13T07:37:18.827Z,62.78
2018-07-13T07:38:18.797Z,63.98
2018-07-13T07:39:18.780Z,64.69
2018-07-13T07:40:18.785Z,64.28
2018-07-13T07:41:18.759Z,63.89
2018-07-13T07:42:18.772Z,63.89
2018-07-13T07:43:18.736Z,64.18
2018-07-13T07:44:18.725Z,64.48
2018-07-13T07:45:18.712Z,64.36
2018-07-13T07:46:18.703Z,63.95
2018-07-13T07:47:18.714Z,63.95
2018-07-13T07:48:18.683Z,62.95
2018-07-13T07:49:18.669Z,62.75
2018-07-13T07:50:18.660Z,62.95
2018-07-13T07:51:18.647Z,62.85
2018-07-13T07:52:18.660Z,62.65
2018-07-13T07:53:18.625Z,62.95
2018-07-13T07:54:18.615Z,62.85
2018-07-13T07:55:18.603Z,63.15
2018-07-13T07:56:18.593Z,62.85
2018-07-13T07:57:18.606Z,62.65
2018-07-13T07:58:18.571Z,62.82
2018-07-13T07:59:18.563Z,62.92
2018-07-13T08:00:18.548Z,62.62
2018-07-13T08:01:18.538Z,62.22
2018-07-13T08:02:18.551Z,62.22
2018-07-13T08:03:18.515Z,62.35
2018-07-13T08:04:18.504Z,62.92
2018-07-13T08:05:18.492Z,62.85
2018-07-13T08:06:18.664Z,62.85
2018-07-13T08:07:18.765Z,63.15
2018-07-13T08:08:18.483Z,62.95
2018-07-13T08:09:18.449Z,63.35
2018-07-13T08:10:18.438Z,62.85
2018-07-13T08:11:18.427Z,63.65
2018-07-13T08:12:18.439Z,63.75
2018-07-13T08:13:18.404Z,63.65
2018-07-13T08:14:18.512Z,63.45
2018-07-13T08:15:18.381Z,62.55
2018-07-13T08:16:18.429Z,63.65
2018-07-13T08:17:18.360Z,62.62
2018-07-13T08:18:18.370Z,62.75
2018-07-13T08:19:18.350Z,62.82
2018-07-13T08:20:18.325Z,62.82
2018-07-13T08:21:18.316Z,62.92
2018-07-13T08:22:18.303Z,62.29
2018-07-13T08:23:18.331Z,62.09
2018-07-13T08:24:18.281Z,61.89
2018-07-13T08:25:18.269Z,61.99
2018-07-13T08:26:18.259Z,61.89
2018-07-13T08:27:18.281Z,62.29
2018-07-13T08:28:18.261Z,62.19
2018-07-13T08:29:18.225Z,61.89
2018-07-13T08:30:18.213Z,61.40
2018-07-13T08:31:18.204Z,62.29
2018-07-13T08:32:18.192Z,62.70
2018-07-13T08:33:18.207Z,62.19
2018-07-13T08:34:18.169Z,61.66
2018-07-13T08:35:18.158Z,61.87
2018-07-13T08:36:18.152Z,61.87
2018-07-13T08:37:18.136Z,61.07
2018-07-13T08:38:18.148Z,60.36
2018-07-13T08:39:18.114Z,60.74
2018-07-13T08:40:18.233Z,60.86
2018-07-13T08:41:18.094Z,61.54
2018-07-13T08:42:18.080Z,61.13
2018-07-13T08:43:18.091Z,60.86
2018-07-13T08:44:18.057Z,60.96
2018-07-13T08:45:18.047Z,61.43
2018-07-13T08:46:18.035Z,61.26
2018-07-13T08:47:18.025Z,60.93
2018-07-13T08:48:18.038Z,61.63
2018-07-13T08:49:18.003Z,62.34
2018-07-13T08:50:17.994Z,61.76
2018-07-13T08:51:17.986Z,61.54
2018-07-13T08:52:17.972Z,61.13
2018-07-13T08:53:17.981Z,61.43
2018-07-13T08:54:17.948Z,61.43
2018-07-13T08:55:17.937Z,61.13
2018-07-13T08:56:17.976Z,61.30
2018-07-13T08:57:17.915Z,61.00
2018-07-13T08:58:17.926Z,60.93
2018-07-13T08:59:17.893Z,61.30
2018-07-13T09:00:17.881Z,61.04
2018-07-13T09:01:17.870Z,61.43
2018-07-13T09:02:17.860Z,61.30
2018-07-13T09:03:17.874Z,60.80
2018-07-13T09:04:17.874Z,60.80
2018-07-13T09:05:17.832Z,60.80
2018-07-13T09:06:17.817Z,61.10
2018-07-13T09:07:17.805Z,60.91
2018-07-13T09:08:17.818Z,61.80
2018-07-13T09:09:17.781Z,60.50
2018-07-13T09:10:17.773Z,60.50
2018-07-13T09:11:17.759Z,60.00
2018-07-13T09:12:17.747Z,60.50
2018-07-13T09:13:17.760Z,60.28
2018-07-13T09:14:17.725Z,59.98
2018-07-13T09:15:17.714Z,60.48
2018-07-13T09:16:17.704Z,60.38
2018-07-13T09:17:17.691Z,59.68
2018-07-13T09:18:17.711Z,59.48
2018-07-13T09:19:17.694Z,59.88
2018-07-13T09:20:17.658Z,59.78
2018-07-13T09:21:17.649Z,59.08
2018-07-13T09:22:17.636Z,59.68
2018-07-13T09:23:17.631Z,59.18
2018-07-13T09:24:17.638Z,59.35
2018-07-13T09:25:17.603Z,59.38
2018-07-13T09:26:17.592Z,58.85
2018-07-13T09:27:17.580Z,58.55
2018-07-13T09:28:17.607Z,58.75
2018-07-13T09:29:17.582Z,58.85
2018-07-13T09:30:17.556Z,58.65
2018-07-13T09:31:17.559Z,58.55
2018-07-13T09:32:17.527Z,58.55
2018-07-13T09:33:17.514Z,58.75
2018-07-13T09:34:17.528Z,58.15
2018-07-13T09:35:17.493Z,58.25
2018-07-13T09:36:17.483Z,57.95
2018-07-13T09:37:17.470Z,57.43
2018-07-13T09:38:17.546Z,57.06
2018-07-13T09:39:17.471Z,57.63
2018-07-13T09:40:17.441Z,57.63
2018-07-13T09:41:17.426Z,58.12
2018-07-13T09:42:17.414Z,57.03
2018-07-13T09:43:17.413Z,56.53
2018-07-13T09:44:17.414Z,56.73
2018-07-13T09:45:17.382Z,55.91
2018-07-13T09:46:17.371Z,56.30
2018-07-13T09:47:17.359Z,55.51
2018-07-13T09:48:17.348Z,55.71
2018-07-13T09:49:17.360Z,55.91
2018-07-13T09:50:17.327Z,54.71
2018-07-13T09:51:17.314Z,54.91
2018-07-13T09:52:17.303Z,55.71
2018-07-13T09:53:17.293Z,56.10
2018-07-13T09:54:17.357Z,55.78
2018-07-13T09:55:17.270Z,56.18
2018-07-13T09:56:17.260Z,56.40
2018-07-13T09:57:17.250Z,55.78
2018-07-13T09:58:17.239Z,55.18
2018-07-13T09:59:17.250Z,54.38
2018-07-13T10:00:17.214Z,53.49
2018-07-13T10:01:17.203Z,53.49
2018-07-13T10:02:17.192Z,54.28
2018-07-13T10:03:17.184Z,54.58
2018-07-13T10:04:17.193Z,53.39
2018-07-13T10:05:17.161Z,53.19
2018-07-13T10:06:17.172Z,53.49
2018-07-13T10:07:17.137Z,53.19
2018-07-13T10:08:17.164Z,53.46
2018-07-13T10:09:17.138Z,53.78
2018-07-13T10:10:17.111Z,53.66
2018-07-13T10:11:17.094Z,53.16
2018-07-13T10:12:17.088Z,53.19
2018-07-13T10:13:17.077Z,52.97
2018-07-13T10:14:17.062Z,52.76
2018-07-13T10:15:17.087Z,52.76
2018-07-13T10:16:17.074Z,52.37
2018-07-13T10:17:17.028Z,52.47
2018-07-13T10:18:17.018Z,52.67
2018-07-13T10:19:17.010Z,52.57
2018-07-13T10:20:17.017Z,52.76
2018-07-13T10:21:16.983Z,51.47
2018-07-13T10:22:16.973Z,51.17
2018-07-13T10:23:16.964Z,52.64
2018-07-13T10:24:16.952Z,51.67
2018-07-13T10:25:16.964Z,52.57
2018-07-13T10:26:16.929Z,50.45
2018-07-13T10:27:16.918Z,49.78
2018-07-13T10:28:16.910Z,49.78
2018-07-13T10:29:16.991Z,51.35
2018-07-13T10:30:16.908Z,51.75
2018-07-13T10:31:16.874Z,51.45
2018-07-13T10:32:16.864Z,52.14
2018-07-13T10:33:16.851Z,50.45
2018-07-13T10:34:16.842Z,51.35
2018-07-13T10:35:16.862Z,51.75
2018-07-13T10:36:16.820Z,51.65
2018-07-13T10:37:16.809Z,51.72
2018-07-13T10:38:16.799Z,49.55
2018-07-13T10:39:16.786Z,50.43
2018-07-13T10:40:16.800Z,49.53
2018-07-13T10:41:16.766Z,51.22
2018-07-13T10:42:16.754Z,51.22
2018-07-13T10:43:16.743Z,48.74
2018-07-13T10:44:16.733Z,50.73
2018-07-13T10:45:16.746Z,51.12
2018-07-13T10:46:16.710Z,50.52
2018-07-13T10:47:16.699Z,49.73
2018-07-13T10:48:16.688Z,48.11
2018-07-13T10:49:16.678Z,49.71
2018-07-13T10:50:16.691Z,48.22
2018-07-13T10:51:16.662Z,48.32
2018-07-13T10:52:16.645Z,48.14
2018-07-13T10:53:16.634Z,47.82
2018-07-13T10:54:16.623Z,49.01
2018-07-13T10:55:16.635Z,49.01
2018-07-13T10:56:16.600Z,49.01
2018-07-13T10:57:16.592Z,48.71
2018-07-13T10:58:16.579Z,48.52
2018-07-13T10:59:16.568Z,48.11
2018-07-13T11:00:16.580Z,49.71
2018-07-13T11:01:16.546Z,49.71
2018-07-13T11:02:16.534Z,49.80
2018-07-13T11:03:16.532Z,49.78
2018-07-13T11:04:16.513Z,49.19
2018-07-13T11:05:16.524Z,49.51
2018-07-13T11:06:16.493Z,49.29
2018-07-13T11:07:16.480Z,49.11
2018-07-13T11:08:16.469Z,49.71
2018-07-13T11:09:16.459Z,47.40
2018-07-13T11:10:16.473Z,48.79
2018-07-13T11:11:16.435Z,48.49
2018-07-13T11:12:16.426Z,47.99
2018-07-13T11:13:16.439Z,48.29
2018-07-13T11:14:16.404Z,48.10
2018-07-13T11:15:16.416Z,48.69
2018-07-13T11:16:16.382Z,48.49
2018-07-13T11:17:16.371Z,48.39
2018-07-13T11:18:16.361Z,48.29
2018-07-13T11:19:16.349Z,47.99
2018-07-13T11:20:16.359Z,47.60
2018-07-13T11:21:16.334Z,48.19
2018-07-13T11:22:16.314Z,47.40
2018-07-13T11:23:16.304Z,47.87
2018-07-13T11:24:16.355Z,47.57
2018-07-13T11:25:16.283Z,47.38
2018-07-13T11:26:16.295Z,47.67
2018-07-13T11:27:16.258Z,47.55
2018-07-13T11:28:16.247Z,46.68
2018-07-13T11:29:16.237Z,46.06
2018-07-13T11:30:16.230Z,46.26
2018-07-13T11:31:16.238Z,46.76
2018-07-13T11:32:16.205Z,45.74
2018-07-13T11:33:16.197Z,44.97
2018-07-13T11:34:16.183Z,45.94
2018-07-13T11:35:16.175Z,46.04
2018-07-13T11:36:16.181Z,46.64
2018-07-13T11:37:16.298Z,46.73
2018-07-13T11:38:16.137Z,46.53
2018-07-13T11:39:16.125Z,46.14
2018-07-13T11:40:16.117Z,46.04
2018-07-13T11:41:16.127Z,46.26
2018-07-13T11:42:16.096Z,46.24
2018-07-13T11:43:16.081Z,46.14
2018-07-13T11:44:16.179Z,46.24
2018-07-13T11:45:16.061Z,46.14
2018-07-13T11:46:16.072Z,46.14
2018-07-13T11:47:16.038Z,45.84
2018-07-13T11:48:16.026Z,45.64
2018-07-13T11:49:16.019Z,44.55
2018-07-13T11:50:16.007Z,45.74
2018-07-13T11:51:16.018Z,45.94
2018-07-13T11:52:15.998Z,45.94
2018-07-13T11:53:15.971Z,46.14
2018-07-13T11:54:15.961Z,46.14
2018-07-13T11:55:15.949Z,44.85
2018-07-13T11:56:15.962Z,46.22
2018-07-13T11:57:15.928Z,46.22
2018-07-13T11:58:15.919Z,46.12
2018-07-13T11:59:15.906Z,45.72
2018-07-13T12:00:15.895Z,43.93
2018-07-13T12:01:15.907Z,45.62
2018-07-13T12:02:15.875Z,43.74
2018-07-13T12:03:15.864Z,45.32
2018-07-13T12:04:15.853Z,44.83
2018-07-13T12:05:15.843Z,44.93
2018-07-13T12:06:15.833Z,44.53
2018-07-13T12:07:15.842Z,44.93
2018-07-13T12:08:15.808Z,45.00
2018-07-13T12:09:15.800Z,43.34
2018-07-13T12:10:15.791Z,44.83
2018-07-13T12:11:15.782Z,45.40
2018-07-13T12:12:15.790Z,44.31
2018-07-13T12:13:15.757Z,44.41
2018-07-13T12:14:15.766Z,43.60
2018-07-13T12:15:15.734Z,43.18
2018-07-13T12:16:15.726Z,42.14
2018-07-13T12:17:15.737Z,39.14
2018-07-13T12:18:15.701Z,40.01
2018-07-13T12:19:15.696Z,39.18
2018-07-13T12:20:15.680Z,38.57
2018-07-13T12:21:15.671Z,38.64
2018-07-13T12:22:15.681Z,37.74
2018-07-13T12:23:15.671Z,36.84
2018-07-13T12:24:15.638Z,36.63
2018-07-13T12:25:15.629Z,36.72
2018-07-13T12:26:15.616Z,35.82
2018-07-13T12:27:15.627Z,36.02
2018-07-13T12:28:15.596Z,36.11
2018-07-13T12:29:15.582Z,36.02
2018-07-13T12:30:15.571Z,36.32
2018-07-13T12:31:15.560Z,36.11
2018-07-13T12:32:15.575Z,35.72
2018-07-13T12:33:15.543Z,36.41
2018-07-13T12:34:15.530Z,36.71
2018-07-13T12:35:15.518Z,36.11
2018-07-13T12:36:15.508Z,36.41
2018-07-13T12:37:15.522Z,36.11
2018-07-13T12:38:15.486Z,34.05
2018-07-13T12:39:15.476Z,36.61
2018-07-13T12:40:15.468Z,35.61
2018-07-13T12:41:15.455Z,36.00
2018-07-13T12:42:15.467Z,36.10
2018-07-13T12:43:15.433Z,35.90
2018-07-13T12:44:15.426Z,35.90
2018-07-13T12:45:15.413Z,36.10
2018-07-13T12:46:15.405Z,36.08
2018-07-13T12:47:15.415Z,36.08
2018-07-13T12:48:15.387Z,36.16
2018-07-13T12:49:15.376Z,35.38
2018-07-13T12:50:15.363Z,35.18
2018-07-13T12:51:15.349Z,35.85
2018-07-13T12:52:15.363Z,35.36